createdAt,value
2018-08-12T00:00:19.827Z,31.14
2018-08-12T00:05:23.619Z,31.26
2018-08-12T00:10:27.412Z,31.43
2018-08-12T00:15:31.210Z,31.96
2018-08-12T00:20:35.031Z,31.39
2018-08-12T00:25:38.750Z,31.12
2018-08-12T00:30:42.487Z,31.14
2018-08-12T00:35:46.178Z,31.12
2018-08-12T00:40:49.879Z,31.29
2018-08-12T00:45:53.617Z,31.69
2018-08-12T00:50:57.370Z,30.60
2018-08-12T00:56:01.194Z,30.25
2018-08-12T01:01:04.890Z,30.28
2018-08-12T01:06:08.605Z,31.02
2018-08-12T01:11:12.404Z,30.77
2018-08-12T01:16:16.090Z,30.58
2018-08-12T01:21:20.055Z,30.29
2018-08-12T01:26:23.816Z,30.34
2018-08-12T01:31:27.549Z,30.42
2018-08-12T01:36:31.307Z,30.55
2018-08-12T01:41:35.060Z,31.02
2018-08-12T01:46:38.752Z,30.73
2018-08-12T01:51:42.433Z,31.16
2018-08-12T01:56:46.173Z,30.64
2018-08-12T02:01:49.870Z,30.82
2018-08-12T02:06:53.633Z,31.30
2018-08-12T02:11:57.386Z,31.29
2018-08-12T02:17:01.089Z,31.06
2018-08-12T02:22:04.894Z,31.05
2018-08-12T02:27:08.585Z,31.61
2018-08-12T02:32:12.272Z,31.73
2018-08-12T02:37:16.030Z,31.35
2018-08-12T02:42:19.705Z,31.52
2018-08-12T02:47:23.459Z,31.90
2018-08-12T02:52:27.142Z,31.33
2018-08-12T02:57:30.832Z,31.37
2018-08-12T03:02:34.852Z,31.54
2018-08-12T03:07:38.612Z,31.68
2018-08-12T03:12:42.444Z,32.04
2018-08-12T03:17:46.113Z,31.46
2018-08-12T03:22:49.805Z,31.82
2018-08-12T03:27:53.478Z,32.03
2018-08-12T03:32:57.223Z,32.30
2018-08-12T03:38:00.933Z,32.27
2018-08-12T03:43:04.979Z,32.14
2018-08-12T03:48:08.633Z,32.39
2018-08-12T03:53:12.317Z,32.51
2018-08-12T03:58:16.082Z,32.24
2018-08-12T04:03:19.802Z,32.29
2018-08-12T04:08:23.605Z,32.41
2018-08-12T04:13:27.438Z,32.48
2018-08-12T04:18:31.175Z,32.66
2018-08-12T04:23:34.850Z,32.68
2018-08-12T04:28:38.537Z,32.41
2018-08-12T04:33:42.226Z,32.77
2018-08-12T04:38:45.991Z,33.05
2018-08-12T04:43:49.678Z,32.42
2018-08-12T04:48:53.405Z,32.97
2018-08-12T04:53:57.210Z,32.64
2018-08-12T04:59:02.232Z,33.25
2018-08-12T05:04:06.073Z,32.70
2018-08-12T05:09:12.157Z,33.25
2018-08-12T05:14:15.940Z,32.43
2018-08-12T05:19:19.699Z,33.60
2018-08-12T05:24:24.993Z,32.88
2018-08-12T05:29:28.880Z,32.77
2018-08-12T05:34:35.478Z,33.06
2018-08-12T05:39:39.258Z,32.31
2018-08-12T05:44:43.274Z,32.97
2018-08-12T05:49:47.193Z,32.73
2018-08-12T05:54:50.959Z,32.51
2018-08-12T05:59:54.669Z,32.70
2018-08-12T06:04:58.431Z,33.18
2018-08-12T06:10:03.189Z,32.29
2018-08-12T06:15:09.639Z,32.76
2018-08-12T06:20:13.751Z,32.41
2018-08-12T06:25:17.487Z,33.08
2018-08-12T06:30:21.431Z,32.49
2018-08-12T06:35:25.312Z,32.25
2018-08-12T06:40:29.092Z,33.08
2018-08-12T06:45:32.849Z,32.70
2018-08-12T06:50:36.657Z,32.21
2018-08-12T06:55:40.365Z,32.62
2018-08-12T07:00:44.351Z,32.10
2018-08-12T07:05:48.090Z,31.75
2018-08-12T07:10:51.843Z,32.99
2018-08-12T07:15:55.600Z,32.42
2018-08-12T07:20:59.322Z,32.73
2018-08-12T07:26:02.990Z,32.52
2018-08-12T07:31:06.726Z,32.27
2018-08-12T07:36:10.605Z,32.42
2018-08-12T07:41:14.358Z,31.08
2018-08-12T07:46:18.193Z,31.24
2018-08-12T07:51:21.992Z,30.42
2018-08-12T07:56:25.794Z,31.39
2018-08-12T08:01:29.463Z,31.03
2018-08-12T08:06:33.214Z,31.58
2018-08-12T08:11:37.022Z,30.28
2018-08-12T08:16:40.904Z,29.58
2018-08-12T08:21:44.633Z,30.16
2018-08-12T08:26:48.355Z,30.27
2018-08-12T08:31:52.313Z,29.76
2018-08-12T08:36:55.853Z,27.99
2018-08-12T08:41:59.612Z,28.79
2018-08-12T08:47:03.410Z,29.70
2018-08-12T08:52:07.462Z,29.85
2018-08-12T08:57:11.173Z,29.50
2018-08-12T09:02:14.918Z,28.91
2018-08-12T09:07:18.661Z,28.94
2018-08-12T09:12:22.334Z,29.63
2018-08-12T09:17:25.969Z,28.55
2018-08-12T09:22:29.770Z,29.20
2018-08-12T09:27:33.600Z,29.50
2018-08-12T09:32:37.527Z,28.76
2018-08-12T09:37:41.322Z,29.05
2018-08-12T09:42:45.642Z,29.05
2018-08-12T09:47:49.375Z,29.22
2018-08-12T09:52:54.170Z,28.84
2018-08-12T09:57:57.773Z,28.99
2018-08-12T10:03:01.506Z,29.00
2018-08-12T10:08:05.209Z,27.93
2018-08-12T10:13:08.916Z,27.11
2018-08-12T10:18:12.674Z,28.50
2018-08-12T10:23:16.371Z,29.26
2018-08-12T10:28:20.098Z,28.97
2018-08-12T10:33:23.820Z,29.14
2018-08-12T10:38:27.507Z,28.35
2018-08-12T10:43:31.281Z,28.98
2018-08-12T10:48:35.082Z,27.89
2018-08-12T10:53:38.876Z,28.63
2018-08-12T10:58:42.679Z,28.53
2018-08-12T11:03:46.504Z,30.23
2018-08-12T11:08:50.396Z,31.43
2018-08-12T11:13:54.210Z,32.40
2018-08-12T11:18:58.074Z,32.78
2018-08-12T11:24:01.786Z,32.59
2018-08-12T11:29:06.130Z,32.98
2018-08-12T11:34:10.319Z,33.22
2018-08-12T11:39:14.059Z,32.94
2018-08-12T11:44:17.759Z,33.40
2018-08-12T11:49:21.515Z,33.69
2018-08-12T11:54:25.336Z,33.53
2018-08-12T11:59:29.133Z,33.61
2018-08-12T12:04:32.964Z,33.89
2018-08-12T12:09:36.993Z,34.22
2018-08-12T12:14:40.759Z,33.98
2018-08-12T12:19:44.511Z,34.14
2018-08-12T12:24:48.294Z,34.15
2018-08-12T12:29:52.150Z,34.87
2018-08-12T12:34:55.822Z,34.44
2018-08-12T12:39:59.774Z,34.71
2018-08-12T12:45:03.903Z,34.90
2018-08-12T12:50:12.144Z,34.49
2018-08-12T12:55:15.895Z,34.56
2018-08-12T13:00:20.868Z,34.89
2018-08-12T13:05:24.571Z,34.78
2018-08-12T13:10:28.291Z,35.07
2018-08-12T13:15:32.031Z,35.26
2018-08-12T13:20:36.873Z,35.09
2018-08-12T13:25:40.781Z,34.77
2018-08-12T13:30:44.539Z,35.15
2018-08-12T13:35:48.242Z,35.22
2018-08-12T13:40:52.053Z,34.69
2018-08-12T13:45:55.847Z,34.79
2018-08-12T13:50:59.746Z,34.82
2018-08-12T13:56:03.470Z,35.32
2018-08-12T14:01:07.206Z,35.24
2018-08-12T14:06:10.938Z,35.17
2018-08-12T14:11:14.702Z,35.98
2018-08-12T14:16:18.394Z,36.08
2018-08-12T14:21:22.135Z,36.14
2018-08-12T14:26:26.953Z,36.24
2018-08-12T14:31:30.625Z,35.96
2018-08-12T14:36:34.289Z,36.07
2018-08-12T14:41:38.122Z,35.90
2018-08-12T14:46:41.835Z,35.50
2018-08-12T14:51:45.606Z,35.88
2018-08-12T14:56:49.321Z,35.90
2018-08-12T15:01:52.991Z,35.61
2018-08-12T15:06:56.808Z,36.05
2018-08-12T15:12:00.633Z,35.69
2018-08-12T15:17:04.393Z,35.87
2018-08-12T15:22:08.075Z,36.21
2018-08-12T15:27:11.778Z,36.28
2018-08-12T15:32:15.513Z,35.82
2018-08-12T15:37:19.236Z,36.24
2018-08-12T15:42:22.943Z,36.08
2018-08-12T15:47:26.550Z,36.46
2018-08-12T15:52:31.803Z,35.95
2018-08-12T15:57:35.870Z,36.02
2018-08-12T16:02:39.838Z,36.37
2018-08-12T16:07:44.281Z,36.43
2018-08-12T16:12:49.479Z,36.21
2018-08-12T16:17:53.270Z,36.09
2018-08-12T16:22:56.940Z,36.12
2018-08-12T16:28:00.668Z,36.31
2018-08-12T16:33:04.471Z,36.37
2018-08-12T16:38:08.410Z,36.41
2018-08-12T16:43:12.109Z,36.44
2018-08-12T16:48:15.790Z,36.82
2018-08-12T16:53:19.746Z,36.95
2018-08-12T16:58:23.938Z,37.39
2018-08-12T17:03:27.759Z,37.48
2018-08-12T17:08:31.870Z,37.08
2018-08-12T17:13:35.932Z,36.93
2018-08-12T17:18:39.902Z,36.82
2018-08-12T17:23:44.385Z,36.96
2018-08-12T17:28:48.636Z,37.36
2018-08-12T17:33:52.721Z,37.45
2018-08-12T17:38:56.403Z,37.51
2018-08-12T17:44:00.134Z,36.82
2018-08-12T17:49:03.910Z,36.96
2018-08-12T17:54:07.727Z,37.43
2018-08-12T17:59:11.383Z,37.51
2018-08-12T18:04:15.081Z,36.88
2018-08-12T18:09:18.757Z,36.60
2018-08-12T18:14:22.551Z,36.32
2018-08-12T18:19:26.239Z,36.70
2018-08-12T18:24:29.981Z,37.07
2018-08-12T18:29:33.775Z,37.66
2018-08-12T18:34:37.498Z,37.55
2018-08-12T18:39:41.132Z,36.91
2018-08-12T18:44:46.103Z,37.14
2018-08-12T18:49:49.922Z,36.92
2018-08-12T18:54:53.570Z,36.84
2018-08-12T18:59:57.305Z,36.71
2018-08-12T19:05:01.180Z,36.33
2018-08-12T19:10:06.665Z,36.98
2018-08-12T19:15:11.467Z,36.27
2018-08-12T19:20:15.258Z,36.74
2018-08-12T19:25:19.015Z,36.87
2018-08-12T19:30:22.765Z,35.53
2018-08-12T19:35:26.346Z,35.22
2018-08-12T19:40:29.903Z,36.03
2018-08-12T19:55:09.181Z,36.02
2018-08-12T20:00:14.661Z,35.42
2018-08-12T20:05:18.571Z,35.96
2018-08-12T20:10:23.290Z,35.14
2018-08-12T20:15:28.233Z,34.51
2018-08-12T20:20:32.319Z,35.27
2018-08-12T20:25:36.470Z,34.24
2018-08-12T20:30:41.818Z,34.13
2018-08-12T20:35:47.694Z,34.47
2018-08-12T20:40:54.048Z,34.39
2018-08-12T20:45:58.361Z,34.26
2018-08-12T20:51:02.755Z,34.10
2018-08-12T20:56:06.808Z,34.83
2018-08-12T21:01:15.272Z,34.76
2018-08-12T21:06:20.414Z,34.01
2018-08-12T21:11:26.452Z,33.85
2018-08-12T21:16:31.690Z,33.75
2018-08-12T21:21:35.411Z,33.95
2018-08-12T21:26:39.120Z,33.93
2018-08-12T21:31:42.750Z,33.92
2018-08-12T21:36:46.389Z,33.86
2018-08-12T21:41:50.001Z,33.87
2018-08-12T21:46:53.655Z,34.13
2018-08-12T21:51:57.220Z,34.22
2018-08-12T21:57:00.870Z,33.78
2018-08-12T22:02:04.678Z,33.65
2018-08-12T22:07:08.447Z,33.97
2018-08-12T22:12:12.145Z,34.07
2018-08-12T22:17:15.851Z,33.71
2018-08-12T22:22:19.685Z,34.57
2018-08-12T22:27:23.545Z,34.24
2018-08-12T22:32:27.209Z,33.92
2018-08-12T22:37:30.851Z,33.93
2018-08-12T22:42:34.586Z,33.84
2018-08-12T22:47:38.242Z,34.19
2018-08-12T22:52:53.120Z,33.78
2018-08-12T22:57:56.847Z,34.48
2018-08-12T23:03:00.468Z,34.13
2018-08-12T23:08:07.281Z,34.35
2018-08-12T23:13:10.935Z,34.15
2018-08-12T23:18:14.859Z,34.41
2018-08-12T23:23:18.521Z,34.02
2018-08-12T23:28:22.114Z,34.55
2018-08-12T23:33:25.727Z,34.39
2018-08-12T23:38:29.513Z,34.43
2018-08-12T23:43:33.198Z,34.38
2018-08-12T23:48:37.226Z,33.91
2018-08-12T23:53:40.876Z,34.15
2018-08-12T23:58:44.551Z,34.43
